sensor_id;sensor_type;location;lat;lon;timestamp;temperature;humidity
49224;DHT22;35050;51.316;5.994;2023-08-12T00:00:10;23.30;99.90
49224;DHT22;35050;51.316;5.994;2023-08-12T00:02:40;23.30;99.90
49224;DHT22;35050;51.316;5.994;2023-08-12T00:05:06;23.30;99.90
49224;DHT22;35050;51.316;5.994;2023-08-12T00:07:33;23.30;99.90
49224;DHT22;35050;51.316;5.994;2023-08-12T00:09:59;23.30;99.90
49224;DHT22;35050;51.316;5.994;2023-08-12T00:12:26;23.30;99.90
49224;DHT22;35050;51.316;5.994;2023-08-12T00:14:52;23.30;99.90
49224;DHT22;35050;51.316;5.994;2023-08-12T00:17:18;23.20;99.90
49224;DHT22;35050;51.316;5.994;2023-08-12T00:19:43;23.30;99.90
49224;DHT22;35050;51.316;5.994;2023-08-12T00:22:09;23.30;99.90
49224;DHT22;35050;51.316;5.994;2023-08-12T00:24:35;23.40;99.90
49224;DHT22;35050;51.316;5.994;2023-08-12T00:27:00;23.20;99.90
49224;DHT22;35050;51.316;5.994;2023-08-12T00:29:26;23.20;99.90
49224;DHT22;35050;51.316;5.994;2023-08-12T00:31:51;23.10;99.90
49224;DHT22;35050;51.316;5.994;2023-08-12T00:34:17;23.00;99.90
49224;DHT22;35050;51.316;5.994;2023-08-12T00:36:43;23.20;99.90
49224;DHT22;35050;51.316;5.994;2023-08-12T00:39:08;23.00;99.90
49224;DHT22;35050;51.316;5.994;2023-08-12T00:41:34;23.10;99.90
49224;DHT22;35050;51.316;5.994;2023-08-12T00:43:59;23.20;99.90
49224;DHT22;35050;51.316;5.994;2023-08-12T00:46:25;23.20;99.90
49224;DHT22;35050;51.316;5.994;2023-08-12T00:48:51;23.20;99.90
49224;DHT22;35050;51.316;5.994;2023-08-12T00:51:17;23.20;99.90
49224;DHT22;35050;51.316;5.994;2023-08-12T00:53:45;23.10;99.90
49224;DHT22;35050;51.316;5.994;2023-08-12T00:56:11;23.20;99.90
49224;DHT22;35050;51.316;5.994;2023-08-12T00:58:38;23.30;99.90
49224;DHT22;35050;51.316;5.994;2023-08-12T01:01:04;23.30;99.90
49224;DHT22;35050;51.316;5.994;2023-08-12T01:03:30;23.20;99.90
49224;DHT22;35050;51.316;5.994;2023-08-12T01:05:56;23.30;99.90
49224;DHT22;35050;51.316;5.994;2023-08-12T01:08:23;23.20;99.90
49224;DHT22;35050;51.316;5.994;2023-08-12T01:10:59;23.20;99.90
49224;DHT22;35050;51.316;5.994;2023-08-12T01:13:44;23.20;99.90
49224;DHT22;35050;51.316;5.994;2023-08-12T01:16:13;23.20;99.90
49224;DHT22;35050;51.316;5.994;2023-08-12T01:18:40;23.20;99.90
49224;DHT22;35050;51.316;5.994;2023-08-12T01:21:08;23.20;99.90
49224;DHT22;35050;51.316;5.994;2023-08-12T01:23:38;23.10;99.90
49224;DHT22;35050;51.316;5.994;2023-08-12T01:26:04;22.80;99.90
49224;DHT22;35050;51.316;5.994;2023-08-12T01:28:30;22.80;99.90
49224;DHT22;35050;51.316;5.994;2023-08-12T01:34:26;22.90;99.90
49224;DHT22;35050;51.316;5.994;2023-08-12T01:36:55;23.00;99.90
49224;DHT22;35050;51.316;5.994;2023-08-12T01:39:23;23.00;99.90
49224;DHT22;35050;51.316;5.994;2023-08-12T01:41:50;23.00;99.90
49224;DHT22;35050;51.316;5.994;2023-08-12T01:44:17;23.00;99.90
49224;DHT22;35050;51.316;5.994;2023-08-12T01:46:44;23.00;99.90
49224;DHT22;35050;51.316;5.994;2023-08-12T01:49:09;23.00;99.90
49224;DHT22;35050;51.316;5.994;2023-08-12T01:51:35;23.00;99.90
49224;DHT22;35050;51.316;5.994;2023-08-12T01:54:01;22.70;99.90
49224;DHT22;35050;51.316;5.994;2023-08-12T01:56:26;22.70;99.90
49224;DHT22;35050;51.316;5.994;2023-08-12T01:58:52;22.60;99.90
49224;DHT22;35050;51.316;5.994;2023-08-12T02:01:17;22.60;99.90
49224;DHT22;35050;51.316;5.994;2023-08-12T02:03:43;22.70;99.90
49224;DHT22;35050;51.316;5.994;2023-08-12T02:06:09;22.80;99.90
49224;DHT22;35050;51.316;5.994;2023-08-12T02:08:34;22.60;99.90
49224;DHT22;35050;51.316;5.994;2023-08-12T02:11:00;22.70;99.90
49224;DHT22;35050;51.316;5.994;2023-08-12T02:13:25;22.50;99.90
49224;DHT22;35050;51.316;5.994;2023-08-12T02:15:51;22.50;99.90
49224;DHT22;35050;51.316;5.994;2023-08-12T02:18:17;22.70;99.90
49224;DHT22;35050;51.316;5.994;2023-08-12T02:20:42;22.70;99.90
49224;DHT22;35050;51.316;5.994;2023-08-12T02:23:08;22.70;99.90
49224;DHT22;35050;51.316;5.994;2023-08-12T02:25:34;22.70;99.90
49224;DHT22;35050;51.316;5.994;2023-08-12T02:27:59;22.70;99.90
49224;DHT22;35050;51.316;5.994;2023-08-12T02:30:26;22.70;99.90
49224;DHT22;35050;51.316;5.994;2023-08-12T02:32:52;22.70;99.90
49224;DHT22;35050;51.316;5.994;2023-08-12T02:35:18;22.60;99.90
49224;DHT22;35050;51.316;5.994;2023-08-12T02:37:44;22.50;99.90
49224;DHT22;35050;51.316;5.994;2023-08-12T02:40:09;22.60;99.90
49224;DHT22;35050;51.316;5.994;2023-08-12T02:42:36;22.60;99.90
49224;DHT22;35050;51.316;5.994;2023-08-12T02:45:02;22.60;99.90
49224;DHT22;35050;51.316;5.994;2023-08-12T02:47:28;22.70;99.90
49224;DHT22;35050;51.316;5.994;2023-08-12T02:49:53;22.60;99.90
49224;DHT22;35050;51.316;5.994;2023-08-12T02:52:19;22.60;99.90
49224;DHT22;35050;51.316;5.994;2023-08-12T02:54:45;22.60;99.90
49224;DHT22;35050;51.316;5.994;2023-08-12T02:57:10;22.40;99.90
49224;DHT22;35050;51.316;5.994;2023-08-12T02:59:36;22.50;99.90
49224;DHT22;35050;51.316;5.994;2023-08-12T03:02:01;22.50;99.90
49224;DHT22;35050;51.316;5.994;2023-08-12T03:04:29;22.60;99.90
49224;DHT22;35050;51.316;5.994;2023-08-12T03:06:54;22.70;99.90
49224;DHT22;35050;51.316;5.994;2023-08-12T03:09:20;22.60;99.90
49224;DHT22;35050;51.316;5.994;2023-08-12T03:11:46;22.50;99.90
49224;DHT22;35050;51.316;5.994;2023-08-12T03:14:12;22.50;99.90
49224;DHT22;35050;51.316;5.994;2023-08-12T03:16:37;22.50;99.90
49224;DHT22;35050;51.316;5.994;2023-08-12T03:19:03;22.40;99.90
49224;DHT22;35050;51.316;5.994;2023-08-12T03:21:29;22.30;99.90
49224;DHT22;35050;51.316;5.994;2023-08-12T03:23:54;22.40;99.90
49224;DHT22;35050;51.316;5.994;2023-08-12T03:26:20;22.30;99.90
49224;DHT22;35050;51.316;5.994;2023-08-12T03:28:45;22.30;99.90
49224;DHT22;35050;51.316;5.994;2023-08-12T03:31:11;22.40;99.90
49224;DHT22;35050;51.316;5.994;2023-08-12T03:33:37;22.50;99.90
49224;DHT22;35050;51.316;5.994;2023-08-12T03:36:02;22.50;99.90
49224;DHT22;35050;51.316;5.994;2023-08-12T03:38:28;22.40;99.90
49224;DHT22;35050;51.316;5.994;2023-08-12T03:40:54;22.40;99.90
49224;DHT22;35050;51.316;5.994;2023-08-12T03:43:19;22.40;99.90
49224;DHT22;35050;51.316;5.994;2023-08-12T03:45:45;22.40;99.90
49224;DHT22;35050;51.316;5.994;2023-08-12T03:48:11;22.40;99.90
49224;DHT22;35050;51.316;5.994;2023-08-12T03:50:37;22.30;99.90
49224;DHT22;35050;51.316;5.994;2023-08-12T03:53:04;22.30;99.90
49224;DHT22;35050;51.316;5.994;2023-08-12T03:55:33;22.20;99.90
49224;DHT22;35050;51.316;5.994;2023-08-12T03:57:59;22.20;99.90
49224;DHT22;35050;51.316;5.994;2023-08-12T04:00:25;22.10;99.90
49224;DHT22;35050;51.316;5.994;2023-08-12T04:02:51;22.20;99.90
49224;DHT22;35050;51.316;5.994;2023-08-12T04:05:17;22.30;99.90
49224;DHT22;35050;51.316;5.994;2023-08-12T04:07:42;22.30;99.90
49224;DHT22;35050;51.316;5.994;2023-08-12T04:10:08;22.30;99.90
49224;DHT22;35050;51.316;5.994;2023-08-12T04:12:34;22.30;99.90
49224;DHT22;35050;51.316;5.994;2023-08-12T04:15:00;22.40;99.90
49224;DHT22;35050;51.316;5.994;2023-08-12T04:17:29;22.40;99.90
49224;DHT22;35050;51.316;5.994;2023-08-12T04:19:55;22.30;99.90
49224;DHT22;35050;51.316;5.994;2023-08-12T04:22:20;22.20;99.90
49224;DHT22;35050;51.316;5.994;2023-08-12T04:24:46;22.20;99.90
49224;DHT22;35050;51.316;5.994;2023-08-12T04:27:11;22.30;99.90
49224;DHT22;35050;51.316;5.994;2023-08-12T04:29:37;22.30;99.90
49224;DHT22;35050;51.316;5.994;2023-08-12T04:32:03;22.30;99.90
49224;DHT22;35050;51.316;5.994;2023-08-12T04:34:28;22.30;99.90
49224;DHT22;35050;51.316;5.994;2023-08-12T04:36:54;22.00;99.90
49224;DHT22;35050;51.316;5.994;2023-08-12T04:39:20;22.10;99.90
49224;DHT22;35050;51.316;5.994;2023-08-12T04:41:45;22.10;99.90
49224;DHT22;35050;51.316;5.994;2023-08-12T04:44:11;22.20;99.90
49224;DHT22;35050;51.316;5.994;2023-08-12T04:46:37;22.30;99.90
49224;DHT22;35050;51.316;5.994;2023-08-12T04:49:03;22.30;99.90
49224;DHT22;35050;51.316;5.994;2023-08-12T04:51:28;22.40;99.90
49224;DHT22;35050;51.316;5.994;2023-08-12T04:53:54;22.40;99.90
49224;DHT22;35050;51.316;5.994;2023-08-12T04:56:20;22.40;99.90
49224;DHT22;35050;51.316;5.994;2023-08-12T04:58:46;22.40;99.90
49224;DHT22;35050;51.316;5.994;2023-08-12T05:01:11;22.40;99.90
49224;DHT22;35050;51.316;5.994;2023-08-12T05:03:37;22.40;99.90
49224;DHT22;35050;51.316;5.994;2023-08-12T05:06:03;22.40;99.90
49224;DHT22;35050;51.316;5.994;2023-08-12T05:08:29;22.40;99.90
49224;DHT22;35050;51.316;5.994;2023-08-12T05:10:54;22.40;99.90
49224;DHT22;35050;51.316;5.994;2023-08-12T05:13:20;22.30;99.90
49224;DHT22;35050;51.316;5.994;2023-08-12T05:15:47;22.30;99.90
49224;DHT22;35050;51.316;5.994;2023-08-12T05:18:13;22.40;99.90
49224;DHT22;35050;51.316;5.994;2023-08-12T05:20:40;22.30;99.90
49224;DHT22;35050;51.316;5.994;2023-08-12T05:23:06;22.20;99.90
49224;DHT22;35050;51.316;5.994;2023-08-12T05:25:32;22.10;99.90
49224;DHT22;35050;51.316;5.994;2023-08-12T05:27:58;22.00;99.90
49224;DHT22;35050;51.316;5.994;2023-08-12T05:30:23;22.20;99.90
49224;DHT22;35050;51.316;5.994;2023-08-12T05:32:49;22.20;99.90
49224;DHT22;35050;51.316;5.994;2023-08-12T05:35:14;22.20;99.90
49224;DHT22;35050;51.316;5.994;2023-08-12T05:37:40;22.20;99.90
49224;DHT22;35050;51.316;5.994;2023-08-12T05:40:08;22.20;99.90
49224;DHT22;35050;51.316;5.994;2023-08-12T05:42:34;22.20;99.90
49224;DHT22;35050;51.316;5.994;2023-08-12T05:45:00;22.00;99.90
49224;DHT22;35050;51.316;5.994;2023-08-12T05:47:25;22.00;99.90
49224;DHT22;35050;51.316;5.994;2023-08-12T05:49:51;22.10;99.90
49224;DHT22;35050;51.316;5.994;2023-08-12T05:52:17;22.20;99.90
49224;DHT22;35050;51.316;5.994;2023-08-12T05:54:42;22.10;99.90
49224;DHT22;35050;51.316;5.994;2023-08-12T05:57:08;22.10;99.90
49224;DHT22;35050;51.316;5.994;2023-08-12T05:59:34;22.00;99.90
49224;DHT22;35050;51.316;5.994;2023-08-12T06:01:59;21.90;99.90
49224;DHT22;35050;51.316;5.994;2023-08-12T06:04:25;21.80;99.90
49224;DHT22;35050;51.316;5.994;2023-08-12T06:06:50;21.80;99.90
49224;DHT22;35050;51.316;5.994;2023-08-12T06:09:16;21.80;99.90
49224;DHT22;35050;51.316;5.994;2023-08-12T06:11:42;21.70;99.90
49224;DHT22;35050;51.316;5.994;2023-08-12T06:14:08;21.70;99.90
49224;DHT22;35050;51.316;5.994;2023-08-12T06:16:33;21.70;99.90
49224;DHT22;35050;51.316;5.994;2023-08-12T06:18:59;21.60;99.90
49224;DHT22;35050;51.316;5.994;2023-08-12T06:21:25;21.60;99.90
49224;DHT22;35050;51.316;5.994;2023-08-12T06:23:51;21.70;99.90
49224;DHT22;35050;51.316;5.994;2023-08-12T06:26:16;21.70;99.90
49224;DHT22;35050;51.316;5.994;2023-08-12T06:28:42;21.60;99.90
49224;DHT22;35050;51.316;5.994;2023-08-12T06:31:08;21.70;99.90
49224;DHT22;35050;51.316;5.994;2023-08-12T06:33:34;21.70;99.90
49224;DHT22;35050;51.316;5.994;2023-08-12T06:35:59;21.70;99.90
49224;DHT22;35050;51.316;5.994;2023-08-12T06:38:25;21.60;99.90
49224;DHT22;35050;51.316;5.994;2023-08-12T06:40:50;21.60;99.90
49224;DHT22;35050;51.316;5.994;2023-08-12T06:43:16;21.70;99.90
49224;DHT22;35050;51.316;5.994;2023-08-12T06:45:42;21.70;99.90
49224;DHT22;35050;51.316;5.994;2023-08-12T06:48:07;21.70;99.90
49224;DHT22;35050;51.316;5.994;2023-08-12T06:50:33;21.60;99.90
49224;DHT22;35050;51.316;5.994;2023-08-12T06:52:59;21.70;99.90
49224;DHT22;35050;51.316;5.994;2023-08-12T06:55:24;21.80;99.90
49224;DHT22;35050;51.316;5.994;2023-08-12T06:57:50;21.80;99.90
49224;DHT22;35050;51.316;5.994;2023-08-12T07:00:16;21.80;99.90
49224;DHT22;35050;51.316;5.994;2023-08-12T07:02:41;21.80;99.90
49224;DHT22;35050;51.316;5.994;2023-08-12T07:05:08;21.70;99.90
49224;DHT22;35050;51.316;5.994;2023-08-12T07:07:34;21.70;99.90
49224;DHT22;35050;51.316;5.994;2023-08-12T07:10:00;21.70;99.90
49224;DHT22;35050;51.316;5.994;2023-08-12T07:12:25;21.70;99.90
49224;DHT22;35050;51.316;5.994;2023-08-12T07:14:51;21.70;99.90
49224;DHT22;35050;51.316;5.994;2023-08-12T07:17:17;21.70;99.90
49224;DHT22;35050;51.316;5.994;2023-08-12T07:19:42;21.70;99.90
49224;DHT22;35050;51.316;5.994;2023-08-12T07:22:08;21.60;99.90
49224;DHT22;35050;51.316;5.994;2023-08-12T07:24:34;21.50;99.90
49224;DHT22;35050;51.316;5.994;2023-08-12T07:26:59;21.70;99.90
49224;DHT22;35050;51.316;5.994;2023-08-12T07:29:25;21.70;99.90
49224;DHT22;35050;51.316;5.994;2023-08-12T07:31:52;21.60;99.90
49224;DHT22;35050;51.316;5.994;2023-08-12T07:34:17;21.60;99.90
49224;DHT22;35050;51.316;5.994;2023-08-12T07:36:43;21.50;99.90
49224;DHT22;35050;51.316;5.994;2023-08-12T07:39:09;21.60;99.90
49224;DHT22;35050;51.316;5.994;2023-08-12T07:41:35;21.60;99.90
49224;DHT22;35050;51.316;5.994;2023-08-12T07:44:01;21.60;99.90
49224;DHT22;35050;51.316;5.994;2023-08-12T07:46:28;21.50;99.90
49224;DHT22;35050;51.316;5.994;2023-08-12T07:48:55;21.50;99.90
49224;DHT22;35050;51.316;5.994;2023-08-12T07:51:21;21.50;99.90
49224;DHT22;35050;51.316;5.994;2023-08-12T07:53:46;21.50;99.90
49224;DHT22;35050;51.316;5.994;2023-08-12T07:56:12;21.50;99.90
49224;DHT22;35050;51.316;5.994;2023-08-12T07:58:38;21.40;99.90
49224;DHT22;35050;51.316;5.994;2023-08-12T08:01:03;21.50;99.90
49224;DHT22;35050;51.316;5.994;2023-08-12T08:03:30;21.60;99.90
49224;DHT22;35050;51.316;5.994;2023-08-12T08:05:56;21.50;99.90
49224;DHT22;35050;51.316;5.994;2023-08-12T08:08:21;21.50;99.90
49224;DHT22;35050;51.316;5.994;2023-08-12T08:10:47;21.40;99.90
49224;DHT22;35050;51.316;5.994;2023-08-12T08:13:13;21.40;99.90
49224;DHT22;35050;51.316;5.994;2023-08-12T08:15:38;21.60;99.90
49224;DHT22;35050;51.316;5.994;2023-08-12T08:18:04;21.60;99.90
49224;DHT22;35050;51.316;5.994;2023-08-12T08:20:30;21.60;99.90
49224;DHT22;35050;51.316;5.994;2023-08-12T08:22:56;21.60;99.90
49224;DHT22;35050;51.316;5.994;2023-08-12T08:25:22;21.70;99.90
49224;DHT22;35050;51.316;5.994;2023-08-12T08:27:48;21.90;99.90
49224;DHT22;35050;51.316;5.994;2023-08-12T08:30:13;21.80;99.90
49224;DHT22;35050;51.316;5.994;2023-08-12T08:32:39;21.50;99.90
49224;DHT22;35050;51.316;5.994;2023-08-12T08:35:05;21.70;99.90
49224;DHT22;35050;51.316;5.994;2023-08-12T08:37:31;21.80;99.90
49224;DHT22;35050;51.316;5.994;2023-08-12T08:39:57;21.80;99.90
49224;DHT22;35050;51.316;5.994;2023-08-12T08:42:24;21.90;99.90
49224;DHT22;35050;51.316;5.994;2023-08-12T08:44:53;21.90;99.90
49224;DHT22;35050;51.316;5.994;2023-08-12T08:47:26;21.80;99.90
49224;DHT22;35050;51.316;5.994;2023-08-12T08:49:56;21.90;99.90
49224;DHT22;35050;51.316;5.994;2023-08-12T08:52:26;21.90;99.90
49224;DHT22;35050;51.316;5.994;2023-08-12T08:54:52;21.90;99.90
49224;DHT22;35050;51.316;5.994;2023-08-12T08:57:18;21.70;99.90
49224;DHT22;35050;51.316;5.994;2023-08-12T08:59:45;21.90;99.90
49224;DHT22;35050;51.316;5.994;2023-08-12T09:02:17;22.00;99.90
49224;DHT22;35050;51.316;5.994;2023-08-12T09:04:44;22.00;99.90
49224;DHT22;35050;51.316;5.994;2023-08-12T09:07:11;21.90;99.90
49224;DHT22;35050;51.316;5.994;2023-08-12T09:09:39;22.00;99.90
49224;DHT22;35050;51.316;5.994;2023-08-12T09:12:06;22.10;99.90
49224;DHT22;35050;51.316;5.994;2023-08-12T09:14:32;22.20;99.90
49224;DHT22;35050;51.316;5.994;2023-08-12T09:16:57;22.30;99.90
49224;DHT22;35050;51.316;5.994;2023-08-12T09:19:24;22.40;99.90
49224;DHT22;35050;51.316;5.994;2023-08-12T09:21:54;22.40;99.90
49224;DHT22;35050;51.316;5.994;2023-08-12T09:24:26;22.50;99.90
49224;DHT22;35050;51.316;5.994;2023-08-12T09:26:53;22.80;99.90
49224;DHT22;35050;51.316;5.994;2023-08-12T09:29:23;22.40;99.90
49224;DHT22;35050;51.316;5.994;2023-08-12T09:31:49;22.30;99.90
49224;DHT22;35050;51.316;5.994;2023-08-12T09:34:14;22.60;99.90
49224;DHT22;35050;51.316;5.994;2023-08-12T09:36:40;22.70;99.90
49224;DHT22;35050;51.316;5.994;2023-08-12T09:39:07;22.70;99.90
49224;DHT22;35050;51.316;5.994;2023-08-12T09:41:37;22.50;99.90
49224;DHT22;35050;51.316;5.994;2023-08-12T09:44:05;22.50;99.90
49224;DHT22;35050;51.316;5.994;2023-08-12T09:46:33;22.40;99.90
49224;DHT22;35050;51.316;5.994;2023-08-12T09:48:59;22.70;99.90
49224;DHT22;35050;51.316;5.994;2023-08-12T09:51:25;22.80;99.90
49224;DHT22;35050;51.316;5.994;2023-08-12T09:53:51;22.80;99.90
49224;DHT22;35050;51.316;5.994;2023-08-12T09:56:19;22.70;99.90
49224;DHT22;35050;51.316;5.994;2023-08-12T09:58:49;22.70;99.90
49224;DHT22;35050;51.316;5.994;2023-08-12T10:01:19;22.70;99.90
49224;DHT22;35050;51.316;5.994;2023-08-12T10:03:49;22.20;99.90
49224;DHT22;35050;51.316;5.994;2023-08-12T10:06:17;22.00;99.90
49224;DHT22;35050;51.316;5.994;2023-08-12T10:08:45;21.90;99.90
49224;DHT22;35050;51.316;5.994;2023-08-12T10:11:11;22.00;99.90
49224;DHT22;35050;51.316;5.994;2023-08-12T10:13:37;21.90;99.90
49224;DHT22;35050;51.316;5.994;2023-08-12T10:16:04;22.00;99.90
49224;DHT22;35050;51.316;5.994;2023-08-12T10:18:30;22.20;99.90
49224;DHT22;35050;51.316;5.994;2023-08-12T10:20:57;22.30;99.90
49224;DHT22;35050;51.316;5.994;2023-08-12T10:23:25;22.50;99.90
49224;DHT22;35050;51.316;5.994;2023-08-12T10:25:53;22.60;99.90
49224;DHT22;35050;51.316;5.994;2023-08-12T10:28:20;22.90;99.90
49224;DHT22;35050;51.316;5.994;2023-08-12T10:30:46;22.80;99.90
49224;DHT22;35050;51.316;5.994;2023-08-12T10:33:14;22.90;99.90
49224;DHT22;35050;51.316;5.994;2023-08-12T10:35:47;22.60;99.90
49224;DHT22;35050;51.316;5.994;2023-08-12T10:38:20;22.70;99.90
49224;DHT22;35050;51.316;5.994;2023-08-12T10:40:46;22.60;99.90
49224;DHT22;35050;51.316;5.994;2023-08-12T10:43:13;22.70;99.90
49224;DHT22;35050;51.316;5.994;2023-08-12T10:45:57;22.60;99.90
49224;DHT22;35050;51.316;5.994;2023-08-12T10:48:26;22.60;99.90
49224;DHT22;35050;51.316;5.994;2023-08-12T10:50:58;22.50;99.90
49224;DHT22;35050;51.316;5.994;2023-08-12T10:53:29;22.50;99.90
49224;DHT22;35050;51.316;5.994;2023-08-12T10:56:00;22.60;99.90
49224;DHT22;35050;51.316;5.994;2023-08-12T11:01:01;22.60;99.90
49224;DHT22;35050;51.316;5.994;2023-08-12T11:03:32;23.00;99.90
49224;DHT22;35050;51.316;5.994;2023-08-12T11:05:59;23.10;99.90
49224;DHT22;35050;51.316;5.994;2023-08-12T11:08:26;23.10;99.90
49224;DHT22;35050;51.316;5.994;2023-08-12T11:10:55;22.90;99.90
49224;DHT22;35050;51.316;5.994;2023-08-12T11:13:21;23.10;99.90
49224;DHT22;35050;51.316;5.994;2023-08-12T11:15:48;23.10;99.90
49224;DHT22;35050;51.316;5.994;2023-08-12T11:18:17;23.30;99.90
49224;DHT22;35050;51.316;5.994;2023-08-12T11:20:44;23.50;99.90
49224;DHT22;35050;51.316;5.994;2023-08-12T11:23:10;23.80;99.90
49224;DHT22;35050;51.316;5.994;2023-08-12T11:25:38;24.20;99.90
49224;DHT22;35050;51.316;5.994;2023-08-12T11:28:07;24.00;99.90
49224;DHT22;35050;51.316;5.994;2023-08-12T11:30:33;24.10;99.90
49224;DHT22;35050;51.316;5.994;2023-08-12T11:33:00;24.80;99.90
49224;DHT22;35050;51.316;5.994;2023-08-12T11:35:26;25.30;99.90
49224;DHT22;35050;51.316;5.994;2023-08-12T11:37:54;25.50;99.90
49224;DHT22;35050;51.316;5.994;2023-08-12T11:40:23;25.10;99.90
49224;DHT22;35050;51.316;5.994;2023-08-12T11:42:50;24.90;99.90
49224;DHT22;35050;51.316;5.994;2023-08-12T11:45:18;25.00;99.90
49224;DHT22;35050;51.316;5.994;2023-08-12T11:47:44;24.80;99.90
49224;DHT22;35050;51.316;5.994;2023-08-12T11:50:12;24.50;99.90
49224;DHT22;35050;51.316;5.994;2023-08-12T11:52:39;24.30;99.90
49224;DHT22;35050;51.316;5.994;2023-08-12T11:55:06;23.90;99.90
49224;DHT22;35050;51.316;5.994;2023-08-12T11:57:32;23.80;99.90
49224;DHT22;35050;51.316;5.994;2023-08-12T12:00:04;23.70;99.90
49224;DHT22;35050;51.316;5.994;2023-08-12T12:02:38;23.60;99.90
49224;DHT22;35050;51.316;5.994;2023-08-12T12:05:11;23.90;99.90
49224;DHT22;35050;51.316;5.994;2023-08-12T12:07:37;24.00;99.90
49224;DHT22;35050;51.316;5.994;2023-08-12T12:10:04;24.00;99.90
49224;DHT22;35050;51.316;5.994;2023-08-12T12:12:33;23.80;99.90
49224;DHT22;35050;51.316;5.994;2023-08-12T12:15:00;23.50;99.90
49224;DHT22;35050;51.316;5.994;2023-08-12T12:17:26;23.40;99.90
49224;DHT22;35050;51.316;5.994;2023-08-12T12:19:56;23.40;99.90
49224;DHT22;35050;51.316;5.994;2023-08-12T12:22:32;23.20;99.90
49224;DHT22;35050;51.316;5.994;2023-08-12T12:25:07;23.00;99.90
49224;DHT22;35050;51.316;5.994;2023-08-12T12:27:33;23.00;99.90
49224;DHT22;35050;51.316;5.994;2023-08-12T12:30:00;23.20;99.90
49224;DHT22;35050;51.316;5.994;2023-08-12T12:32:26;23.30;99.90
49224;DHT22;35050;51.316;5.994;2023-08-12T12:34:52;23.30;99.90
49224;DHT22;35050;51.316;5.994;2023-08-12T12:37:18;23.20;99.90
49224;DHT22;35050;51.316;5.994;2023-08-12T12:39:44;23.40;99.90
49224;DHT22;35050;51.316;5.994;2023-08-12T12:42:11;23.70;99.90
49224;DHT22;35050;51.316;5.994;2023-08-12T12:44:37;24.20;99.90
49224;DHT22;35050;51.316;5.994;2023-08-12T12:47:03;24.50;99.90
49224;DHT22;35050;51.316;5.994;2023-08-12T12:49:29;24.70;99.90
49224;DHT22;35050;51.316;5.994;2023-08-12T12:51:54;24.90;99.90
49224;DHT22;35050;51.316;5.994;2023-08-12T12:54:20;24.70;99.90
49224;DHT22;35050;51.316;5.994;2023-08-12T12:56:45;24.90;99.90
49224;DHT22;35050;51.316;5.994;2023-08-12T12:59:11;25.00;99.90
49224;DHT22;35050;51.316;5.994;2023-08-12T13:01:37;25.50;99.90
49224;DHT22;35050;51.316;5.994;2023-08-12T13:04:03;25.70;99.90
49224;DHT22;35050;51.316;5.994;2023-08-12T13:06:28;26.20;99.90
49224;DHT22;35050;51.316;5.994;2023-08-12T13:08:54;26.40;99.90
49224;DHT22;35050;51.316;5.994;2023-08-12T13:11:20;26.10;99.90
49224;DHT22;35050;51.316;5.994;2023-08-12T13:13:45;26.20;99.90
49224;DHT22;35050;51.316;5.994;2023-08-12T13:16:11;26.40;99.90
49224;DHT22;35050;51.316;5.994;2023-08-12T13:18:38;26.50;99.90
49224;DHT22;35050;51.316;5.994;2023-08-12T13:21:03;26.70;99.90
49224;DHT22;35050;51.316;5.994;2023-08-12T13:23:29;26.40;99.90
49224;DHT22;35050;51.316;5.994;2023-08-12T13:25:55;26.60;99.90
49224;DHT22;35050;51.316;5.994;2023-08-12T13:28:20;27.10;99.90
49224;DHT22;35050;51.316;5.994;2023-08-12T13:30:46;27.60;99.90
49224;DHT22;35050;51.316;5.994;2023-08-12T13:33:11;27.20;99.90
49224;DHT22;35050;51.316;5.994;2023-08-12T13:35:37;27.20;99.90
49224;DHT22;35050;51.316;5.994;2023-08-12T13:38:03;27.50;99.90
49224;DHT22;35050;51.316;5.994;2023-08-12T13:40:29;27.40;99.90
49224;DHT22;35050;51.316;5.994;2023-08-12T13:42:54;27.40;99.90
49224;DHT22;35050;51.316;5.994;2023-08-12T13:45:20;27.40;99.90
49224;DHT22;35050;51.316;5.994;2023-08-12T13:47:46;27.60;99.90
49224;DHT22;35050;51.316;5.994;2023-08-12T13:50:11;27.50;99.90
49224;DHT22;35050;51.316;5.994;2023-08-12T13:52:39;27.30;99.90
49224;DHT22;35050;51.316;5.994;2023-08-12T13:55:05;27.50;99.90
49224;DHT22;35050;51.316;5.994;2023-08-12T13:57:30;28.00;99.90
49224;DHT22;35050;51.316;5.994;2023-08-12T13:59:56;27.90;99.90
49224;DHT22;35050;51.316;5.994;2023-08-12T14:02:22;28.00;99.90
49224;DHT22;35050;51.316;5.994;2023-08-12T14:04:48;28.00;99.90
49224;DHT22;35050;51.316;5.994;2023-08-12T14:07:14;27.80;99.90
49224;DHT22;35050;51.316;5.994;2023-08-12T14:09:41;27.90;99.90
49224;DHT22;35050;51.316;5.994;2023-08-12T14:12:06;27.80;99.90
49224;DHT22;35050;51.316;5.994;2023-08-12T14:14:32;28.00;99.90
49224;DHT22;35050;51.316;5.994;2023-08-12T14:16:58;28.30;99.90
49224;DHT22;35050;51.316;5.994;2023-08-12T14:19:24;27.90;99.90
49224;DHT22;35050;51.316;5.994;2023-08-12T14:21:49;28.00;99.90
49224;DHT22;35050;51.316;5.994;2023-08-12T14:24:15;27.90;99.90
49224;DHT22;35050;51.316;5.994;2023-08-12T14:26:41;27.40;99.90
49224;DHT22;35050;51.316;5.994;2023-08-12T14:29:06;27.40;99.90
49224;DHT22;35050;51.316;5.994;2023-08-12T14:31:33;26.80;99.90
49224;DHT22;35050;51.316;5.994;2023-08-12T14:33:59;26.70;99.90
49224;DHT22;35050;51.316;5.994;2023-08-12T14:36:25;27.40;99.90
49224;DHT22;35050;51.316;5.994;2023-08-12T14:38:51;27.80;99.90
49224;DHT22;35050;51.316;5.994;2023-08-12T14:41:16;27.90;99.90
49224;DHT22;35050;51.316;5.994;2023-08-12T14:43:42;27.90;99.90
49224;DHT22;35050;51.316;5.994;2023-08-12T14:46:07;27.30;99.90
49224;DHT22;35050;51.316;5.994;2023-08-12T14:48:33;26.60;99.90
49224;DHT22;35050;51.316;5.994;2023-08-12T14:50:59;26.50;99.90
49224;DHT22;35050;51.316;5.994;2023-08-12T14:53:25;26.70;99.90
49224;DHT22;35050;51.316;5.994;2023-08-12T14:55:51;27.30;99.90
49224;DHT22;35050;51.316;5.994;2023-08-12T14:58:16;27.20;99.90
49224;DHT22;35050;51.316;5.994;2023-08-12T15:00:42;27.70;99.90
49224;DHT22;35050;51.316;5.994;2023-08-12T15:03:08;27.50;99.90
49224;DHT22;35050;51.316;5.994;2023-08-12T15:05:35;27.10;99.90
49224;DHT22;35050;51.316;5.994;2023-08-12T15:08:01;26.60;99.90
49224;DHT22;35050;51.316;5.994;2023-08-12T15:10:28;26.20;99.90
49224;DHT22;35050;51.316;5.994;2023-08-12T15:12:54;26.20;99.90
49224;DHT22;35050;51.316;5.994;2023-08-12T15:15:20;26.80;99.90
49224;DHT22;35050;51.316;5.994;2023-08-12T15:17:46;27.10;99.90
49224;DHT22;35050;51.316;5.994;2023-08-12T15:20:11;26.90;99.90
49224;DHT22;35050;51.316;5.994;2023-08-12T15:22:37;26.20;99.90
49224;DHT22;35050;51.316;5.994;2023-08-12T15:25:03;26.30;99.90
49224;DHT22;35050;51.316;5.994;2023-08-12T15:27:28;26.60;99.90
49224;DHT22;35050;51.316;5.994;2023-08-12T15:29:55;26.90;99.90